createdAt,value
2018-12-12T00:00:42.769Z,309.55
2018-12-12T00:03:43.269Z,304.96
2018-12-12T00:04:45.762Z,309.79
2018-12-12T00:05:45.262Z,309.32
2018-12-12T00:06:57.767Z,309.52
2018-12-12T00:07:45.760Z,308.88
2018-12-12T00:10:07.720Z,303.81
2018-12-12T00:10:55.716Z,309.04
2018-12-12T00:12:20.190Z,311.17
2018-12-12T00:12:55.179Z,309.13
2018-12-12T00:14:22.187Z,310.14
2018-12-12T00:15:48.464Z,302.48
2018-12-12T00:17:01.996Z,309.54
2018-12-12T00:18:02.005Z,309.61
2018-12-12T00:18:48.981Z,309.51
2018-12-12T00:19:46.997Z,310.12
2018-12-12T00:20:53.008Z,309.56
2018-12-12T00:21:49.016Z,309.45
2018-12-12T00:22:47.002Z,309.53
2018-12-12T00:23:46.255Z,310.25
2018-12-12T00:24:47.975Z,309.93
2018-12-12T00:25:55.516Z,309.99
2018-12-12T00:26:48.034Z,309.55
2018-12-12T00:27:47.975Z,310.06
2018-12-12T00:28:53.061Z,310.17
2018-12-12T00:29:48.978Z,310.15
2018-12-12T00:30:50.004Z,311.17
2018-12-12T00:31:46.211Z,309.75
2018-12-12T00:32:47.034Z,309.87
2018-12-12T00:33:48.055Z,310.06
2018-12-12T00:34:48.015Z,309.82
2018-12-12T00:35:52.017Z,309.78
2018-12-12T00:36:46.142Z,310.05
2018-12-12T00:37:46.129Z,310.20
2018-12-12T00:38:47.042Z,311.13
2018-12-12T00:39:55.043Z,311.21
2018-12-12T00:40:46.102Z,309.69
2018-12-12T00:41:46.091Z,310.02
2018-12-12T00:42:46.104Z,310.08
2018-12-12T00:43:46.054Z,310.40
2018-12-12T00:44:46.051Z,309.91
2018-12-12T00:48:00.057Z,310.32
2018-12-12T00:48:56.514Z,310.37
2018-12-12T00:49:41.995Z,310.65
2018-12-12T00:50:45.070Z,309.80
2018-12-12T00:51:41.993Z,309.67
2018-12-12T00:58:50.701Z,304.00
2018-12-12T01:07:07.259Z,310.01
2018-12-12T01:08:07.773Z,311.00
2018-12-12T01:09:06.232Z,310.21
2018-12-12T01:10:06.822Z,310.80
2018-12-12T01:11:08.764Z,310.45
2018-12-12T01:12:07.774Z,310.91
2018-12-12T01:13:24.808Z,310.88
2018-12-12T01:14:05.843Z,310.18
2018-12-12T01:15:08.779Z,310.45
2018-12-12T01:16:06.810Z,311.51
2018-12-12T01:17:04.787Z,310.05
2018-12-12T01:18:07.806Z,310.33
2018-12-12T01:19:04.447Z,311.00
2018-12-12T01:20:05.769Z,310.85
2018-12-12T01:22:33.035Z,309.31
2018-12-12T01:23:31.014Z,310.51
2018-12-12T01:24:52.045Z,310.94
2018-12-12T01:25:30.570Z,310.74
2018-12-12T01:26:29.039Z,310.54
2018-12-12T01:27:32.029Z,309.97
2018-12-12T01:28:30.538Z,310.53
2018-12-12T01:29:33.519Z,310.65
2018-12-12T01:30:27.057Z,311.27
2018-12-12T01:31:27.020Z,310.58
2018-12-12T01:32:26.521Z,310.51
2018-12-12T01:33:26.018Z,309.89
2018-12-12T01:34:28.547Z,310.65
2018-12-12T01:35:26.563Z,310.47
2018-12-12T01:36:26.552Z,310.42
2018-12-12T01:37:28.037Z,310.63
2018-12-12T01:38:27.577Z,310.01
2018-12-12T01:39:27.570Z,311.12
2018-12-12T01:40:25.944Z,310.05
2018-12-12T01:41:27.043Z,310.63
2018-12-12T01:42:26.565Z,310.79
2018-12-12T01:43:28.582Z,310.71
2018-12-12T01:44:29.515Z,311.06
2018-12-12T01:45:30.544Z,310.76
2018-12-12T01:46:30.020Z,310.88
2018-12-12T01:47:49.544Z,310.92
2018-12-12T01:48:29.073Z,310.79
2018-12-12T01:49:29.555Z,311.12
2018-12-12T01:50:31.541Z,311.49
2018-12-12T01:51:33.039Z,310.73
2018-12-12T01:52:50.025Z,310.67
2018-12-12T01:53:28.110Z,310.96
2018-12-12T01:54:26.569Z,311.30
2018-12-12T01:55:26.692Z,311.17
2018-12-12T01:56:25.781Z,310.71
2018-12-12T01:57:32.022Z,311.24
2018-12-12T01:58:27.527Z,310.96
2018-12-12T01:59:29.521Z,311.81
2018-12-12T02:00:27.642Z,310.84
2018-12-12T02:01:27.022Z,310.88
2018-12-12T02:02:30.518Z,311.09
2018-12-12T02:03:31.027Z,310.93
2018-12-12T02:04:26.550Z,310.62
2018-12-12T02:05:27.528Z,310.98
2018-12-12T02:06:28.009Z,311.51
2018-12-12T02:07:33.134Z,311.37
2018-12-12T02:08:28.543Z,311.20
2018-12-12T02:09:27.062Z,311.36
2018-12-12T02:10:29.526Z,311.06
2018-12-12T02:11:25.594Z,311.58
2018-12-12T02:12:28.542Z,310.91
2018-12-12T02:13:26.787Z,311.56
2018-12-12T02:14:29.537Z,311.16
2018-12-12T02:15:28.050Z,310.82
2018-12-12T02:16:26.689Z,310.41
2018-12-12T02:17:25.529Z,311.05
2018-12-12T02:18:27.047Z,310.45
2018-12-12T02:19:25.541Z,310.81
2018-12-12T02:20:25.506Z,310.73
2018-12-12T02:21:40.047Z,310.77
2018-12-12T02:22:29.092Z,311.04
2018-12-12T02:23:26.128Z,310.81
2018-12-12T02:24:27.597Z,310.91
2018-12-12T02:25:28.211Z,310.75
2018-12-12T02:26:28.021Z,310.57
2018-12-12T02:27:26.668Z,310.59
2018-12-12T02:28:28.557Z,310.54
2018-12-12T02:29:28.021Z,311.00
2018-12-12T02:30:29.046Z,311.37
2018-12-12T02:31:27.549Z,311.04
2018-12-12T02:32:50.028Z,311.11
2018-12-12T02:33:27.043Z,310.98
2018-12-12T02:34:26.027Z,311.63
2018-12-12T02:35:27.107Z,311.41
2018-12-12T02:36:25.392Z,311.50
2018-12-12T02:37:31.522Z,310.46
2018-12-12T02:38:31.556Z,311.08
2018-12-12T02:39:28.087Z,311.20
2018-12-12T02:40:26.079Z,310.86
2018-12-12T02:41:27.074Z,310.70
2018-12-12T02:42:28.081Z,311.38
2018-12-12T02:43:27.042Z,310.83
2018-12-12T02:44:29.060Z,311.31
2018-12-12T02:45:32.018Z,311.00
2018-12-12T02:47:39.701Z,303.89
2018-12-12T02:48:37.683Z,310.82
2018-12-12T02:50:00.169Z,310.54
2018-12-12T02:50:40.667Z,310.98
2018-12-12T02:51:38.247Z,310.55
2018-12-12T02:52:37.674Z,310.40
2018-12-12T02:53:40.206Z,311.23
2018-12-12T02:54:40.246Z,310.72
2018-12-12T02:55:36.697Z,311.09
2018-12-12T02:56:37.231Z,311.25
2018-12-12T02:57:59.681Z,310.62
2018-12-12T02:58:39.188Z,310.50
2018-12-12T02:59:38.724Z,311.34
2018-12-12T03:00:38.718Z,311.00
2018-12-12T03:01:36.112Z,311.33
2018-12-12T03:02:49.678Z,310.85
2018-12-12T03:03:36.201Z,310.41
2018-12-12T03:04:36.128Z,311.10
2018-12-12T03:05:38.769Z,311.49
2018-12-12T03:06:37.772Z,310.37
2018-12-12T03:07:39.235Z,310.70
2018-12-12T03:08:37.701Z,311.08
2018-12-12T03:09:40.181Z,310.92
2018-12-12T03:10:38.718Z,310.89
2018-12-12T03:11:36.870Z,310.67
2018-12-12T03:12:38.685Z,310.66
2018-12-12T03:13:35.978Z,310.84
2018-12-12T03:15:30.128Z,302.50
2018-12-12T03:16:39.118Z,310.42
2018-12-12T03:17:31.044Z,310.75
2018-12-12T03:18:31.068Z,311.00
2018-12-12T03:19:30.033Z,311.13
2018-12-12T03:20:28.231Z,310.97
2018-12-12T03:21:29.046Z,310.96
2018-12-12T03:22:29.052Z,310.43
2018-12-12T03:23:28.090Z,310.09
2018-12-12T03:24:28.065Z,310.86
2018-12-12T03:25:28.053Z,310.58
2018-12-12T03:26:28.641Z,310.62
2018-12-12T03:27:28.209Z,310.40
2018-12-12T03:28:28.082Z,310.55
2018-12-12T03:29:28.036Z,310.52
2018-12-12T03:30:28.691Z,310.88
2018-12-12T03:31:29.648Z,310.46
2018-12-12T03:32:31.068Z,310.05
2018-12-12T03:33:31.570Z,310.33
2018-12-12T03:34:36.056Z,310.60
2018-12-12T03:35:31.555Z,310.34
2018-12-12T03:36:28.036Z,311.41
2018-12-12T03:37:27.962Z,310.15
2018-12-12T03:38:27.963Z,310.53
2018-12-12T03:39:27.922Z,311.01
2018-12-12T03:40:27.932Z,310.70
2018-12-12T03:41:29.624Z,310.84
2018-12-12T03:42:27.896Z,310.71
2018-12-12T03:43:27.879Z,311.11
2018-12-12T03:44:27.866Z,310.63
2018-12-12T03:45:27.865Z,310.06
2018-12-12T03:46:28.537Z,311.85
2018-12-12T03:47:27.827Z,310.62
2018-12-12T03:48:27.881Z,310.93
2018-12-12T03:49:28.554Z,311.47
2018-12-12T03:50:27.846Z,310.37
2018-12-12T03:51:28.583Z,309.76
2018-12-12T03:52:28.573Z,310.95
2018-12-12T03:53:28.564Z,310.67
2018-12-12T03:54:28.570Z,310.60
2018-12-12T03:55:29.623Z,310.67
2018-12-12T03:56:27.782Z,310.33
2018-12-12T03:57:27.753Z,309.84
2018-12-12T03:58:29.619Z,310.15
2018-12-12T03:59:27.701Z,310.38
2018-12-12T04:00:27.745Z,309.80
2018-12-12T04:01:27.721Z,310.57
2018-12-12T04:02:27.703Z,309.80
2018-12-12T04:03:28.551Z,310.51
2018-12-12T04:04:27.691Z,309.46
2018-12-12T04:05:29.670Z,311.25
2018-12-12T04:06:30.580Z,310.53
2018-12-12T04:07:27.652Z,310.08
2018-12-12T04:08:28.579Z,309.96
2018-12-12T04:09:28.580Z,309.97
2018-12-12T04:10:30.121Z,310.13
2018-12-12T04:11:28.587Z,310.12
2018-12-12T04:12:28.593Z,310.77
2018-12-12T04:13:27.648Z,310.13
2018-12-12T04:14:27.580Z,311.29
2018-12-12T04:15:28.087Z,310.37
2018-12-12T04:16:28.063Z,309.86
2018-12-12T04:17:27.535Z,310.05
2018-12-12T04:18:29.109Z,311.18
2018-12-12T04:19:27.510Z,310.73
2018-12-12T04:20:28.080Z,310.26
2018-12-12T04:21:27.519Z,310.47
2018-12-12T04:22:30.126Z,310.27
2018-12-12T04:23:27.502Z,310.35
2018-12-12T04:24:27.501Z,311.12
2018-12-12T04:25:28.064Z,310.41
2018-12-12T04:26:28.494Z,309.59
2018-12-12T04:27:27.437Z,310.26
2018-12-12T04:28:27.463Z,309.65
2018-12-12T04:29:27.388Z,310.62
2018-12-12T04:30:27.375Z,311.63
2018-12-12T04:31:29.128Z,310.13
2018-12-12T04:32:28.039Z,310.35
2018-12-12T04:33:28.076Z,311.43
2018-12-12T04:34:28.621Z,311.60
2018-12-12T04:35:28.092Z,311.50
2018-12-12T04:36:28.116Z,311.34
2018-12-12T04:37:28.120Z,311.36
2018-12-12T04:38:27.406Z,312.11
2018-12-12T04:39:28.063Z,311.89
2018-12-12T04:40:27.300Z,312.09
2018-12-12T04:41:29.065Z,311.35
2018-12-12T04:42:27.334Z,311.14
2018-12-12T04:43:27.237Z,311.07
2018-12-12T04:44:27.247Z,311.02
2018-12-12T04:45:28.027Z,311.22
2018-12-12T04:46:27.215Z,312.02
2018-12-12T04:47:29.071Z,311.65
2018-12-12T04:48:41.589Z,310.35
2018-12-12T04:49:29.066Z,310.82
2018-12-12T04:50:28.111Z,310.83
2018-12-12T04:51:27.183Z,311.28
2018-12-12T04:52:29.189Z,311.53
2018-12-12T04:53:27.181Z,310.35
2018-12-12T04:54:27.116Z,311.31
2018-12-12T04:55:27.119Z,310.85
2018-12-12T04:56:28.097Z,311.72
2018-12-12T04:57:29.575Z,311.00
2018-12-12T04:58:29.611Z,310.45
2018-12-12T04:59:29.645Z,310.63
2018-12-12T05:00:28.624Z,310.92
2018-12-12T05:01:27.038Z,310.41
2018-12-12T05:02:27.657Z,310.63
2018-12-12T05:03:27.134Z,310.79
2018-12-12T05:04:27.094Z,311.54
2018-12-12T05:05:27.625Z,311.13
2018-12-12T05:06:50.686Z,310.74
2018-12-12T05:07:27.006Z,311.76
2018-12-12T05:08:28.688Z,311.01
2018-12-12T05:09:30.101Z,312.07
2018-12-12T05:10:28.657Z,311.11
2018-12-12T05:11:28.166Z,310.95
2018-12-12T05:13:20.996Z,303.75
2018-12-12T05:14:20.509Z,311.48
2018-12-12T05:15:20.504Z,311.09
2018-12-12T05:16:19.743Z,310.53
2018-12-12T05:17:19.756Z,310.84
2018-12-12T05:18:19.726Z,311.69
2018-12-12T05:19:19.725Z,310.67
2018-12-12T05:20:19.707Z,310.95
2018-12-12T05:21:19.701Z,310.73
2018-12-12T05:22:19.692Z,311.23
2018-12-12T05:23:19.680Z,310.50
2018-12-12T05:24:19.668Z,310.80
2018-12-12T05:25:20.503Z,311.00
2018-12-12T05:26:19.645Z,311.11
2018-12-12T05:27:20.513Z,311.12
2018-12-12T05:28:19.640Z,311.24
2018-12-12T05:29:19.611Z,312.36
2018-12-12T05:30:19.634Z,312.12
2018-12-12T05:31:19.593Z,312.32
2018-12-12T05:32:19.594Z,312.06
2018-12-12T05:33:19.573Z,312.16
2018-12-12T05:34:19.575Z,311.31
2018-12-12T05:36:12.828Z,304.63
2018-12-12T05:37:12.788Z,312.47
2018-12-12T05:38:12.784Z,312.62
2018-12-12T05:39:12.775Z,312.85
2018-12-12T05:40:12.762Z,312.40
2018-12-12T05:41:12.761Z,311.97
2018-12-12T05:42:12.746Z,310.37
2018-12-12T05:43:12.724Z,312.24
2018-12-12T05:44:12.746Z,312.29
2018-12-12T05:45:12.712Z,311.74
2018-12-12T05:46:12.696Z,312.61
2018-12-12T05:47:12.691Z,312.07
2018-12-12T05:48:12.674Z,311.85
2018-12-12T05:49:12.669Z,310.79
2018-12-12T05:50:12.695Z,311.32
2018-12-12T05:51:12.669Z,312.25
2018-12-12T05:52:15.204Z,311.60
2018-12-12T05:53:13.250Z,311.56
2018-12-12T05:54:16.172Z,311.36
2018-12-12T05:55:13.194Z,311.11
2018-12-12T05:56:14.287Z,312.16
2018-12-12T05:57:12.647Z,311.92
2018-12-12T05:58:12.627Z,311.28
2018-12-12T05:59:13.151Z,311.82
2018-12-12T06:00:13.127Z,311.29
2018-12-12T06:01:12.554Z,311.80
2018-12-12T06:02:12.550Z,311.40
2018-12-12T06:03:13.159Z,311.46
2018-12-12T06:04:13.153Z,311.87
2018-12-12T06:05:14.154Z,311.00
2018-12-12T06:06:16.664Z,310.98
2018-12-12T06:07:33.486Z,311.33
2018-12-12T06:08:17.160Z,311.15
2018-12-12T06:09:14.167Z,311.20
2018-12-12T06:10:19.639Z,311.42
2018-12-12T06:11:14.168Z,310.95
2018-12-12T06:12:15.143Z,312.43
2018-12-12T06:13:14.166Z,312.52
2018-12-12T06:14:17.143Z,312.49
2018-12-12T06:15:12.417Z,312.44
2018-12-12T06:16:21.147Z,311.21
2018-12-12T06:17:13.154Z,311.66
2018-12-12T06:18:14.153Z,311.70
2018-12-12T06:19:20.143Z,311.80
2018-12-12T06:20:16.658Z,311.82
2018-12-12T06:21:18.132Z,311.87
2018-12-12T06:22:12.320Z,311.90
2018-12-12T06:23:18.141Z,312.44
2018-12-12T06:24:15.189Z,312.62
2018-12-12T06:25:16.145Z,312.36
2018-12-12T06:26:20.205Z,313.06
2018-12-12T06:27:16.178Z,311.94
2018-12-12T06:28:20.138Z,313.18
2018-12-12T06:29:15.162Z,313.06
2018-12-12T06:30:13.180Z,312.53
2018-12-12T06:31:13.643Z,312.54
2018-12-12T06:32:12.231Z,312.95
2018-12-12T06:33:12.280Z,312.74
2018-12-12T06:34:12.279Z,312.88
2018-12-12T06:35:12.196Z,313.18
2018-12-12T06:36:12.234Z,313.16
2018-12-12T06:37:12.202Z,313.20
2018-12-12T06:38:12.165Z,313.27
2018-12-12T06:39:12.208Z,313.68
2018-12-12T06:40:12.243Z,313.22
2018-12-12T06:41:12.686Z,312.32
2018-12-12T06:42:12.667Z,313.07
2018-12-12T06:43:12.139Z,313.18
2018-12-12T06:44:12.630Z,312.53
2018-12-12T06:45:12.623Z,312.16
2018-12-12T06:46:12.637Z,312.88
2018-12-12T06:47:21.669Z,312.90
2018-12-12T06:48:12.188Z,312.56
2018-12-12T06:49:12.060Z,312.28
2018-12-12T06:50:13.657Z,312.41
2018-12-12T06:51:12.660Z,313.21
2018-12-12T06:52:12.660Z,312.59
2018-12-12T06:53:12.025Z,312.43
2018-12-12T06:54:12.005Z,312.20
2018-12-12T06:55:11.987Z,312.52
2018-12-12T06:56:12.723Z,312.40
2018-12-12T06:57:12.663Z,312.98
2018-12-12T06:58:12.667Z,312.20
2018-12-12T06:59:11.983Z,312.80
2018-12-12T07:00:11.959Z,313.27
2018-12-12T07:01:13.669Z,312.39
2018-12-12T07:02:11.943Z,312.92
2018-12-12T07:03:11.926Z,312.87
2018-12-12T07:04:11.915Z,312.34
2018-12-12T07:05:11.894Z,312.60
2018-12-12T07:06:11.855Z,313.28
2018-12-12T07:07:14.300Z,313.06
2018-12-12T07:08:11.841Z,312.94
2018-12-12T07:09:12.165Z,312.26
2018-12-12T07:10:11.813Z,313.34
2018-12-12T07:11:11.853Z,312.99
2018-12-12T07:12:11.824Z,312.82
2018-12-12T07:13:12.711Z,312.23
2018-12-12T07:14:11.784Z,312.73
2018-12-12T07:15:13.792Z,312.88
2018-12-12T07:16:12.201Z,312.51
2018-12-12T07:17:11.805Z,312.57
2018-12-12T07:18:11.760Z,313.14
2018-12-12T07:19:13.723Z,313.53
2018-12-12T07:20:13.230Z,313.67
2018-12-12T07:21:11.771Z,312.96
2018-12-12T07:22:11.707Z,313.36
2018-12-12T07:23:12.184Z,312.93
2018-12-12T07:24:12.150Z,313.59
2018-12-12T07:25:12.175Z,312.98
2018-12-12T07:26:12.161Z,313.34
2018-12-12T07:27:12.208Z,312.86
2018-12-12T07:28:12.161Z,312.98
2018-12-12T07:29:12.665Z,312.92
2018-12-12T07:30:11.781Z,313.30
2018-12-12T07:31:26.223Z,313.06
2018-12-12T07:32:11.609Z,313.53
2018-12-12T07:33:11.622Z,312.36
2018-12-12T07:34:12.184Z,312.72
2018-12-12T07:35:11.580Z,312.86
2018-12-12T07:36:12.689Z,313.34
2018-12-12T07:37:12.722Z,313.26
2018-12-12T07:38:12.175Z,313.72
2018-12-12T07:39:17.856Z,313.71
2018-12-12T07:40:12.551Z,313.08
2018-12-12T07:41:12.173Z,313.00
2018-12-12T07:42:12.186Z,313.57
2018-12-12T07:43:11.474Z,312.85
2018-12-12T07:44:11.473Z,312.90
2018-12-12T07:45:11.469Z,313.78
2018-12-12T07:46:12.183Z,313.23
2018-12-12T07:47:12.188Z,313.63
2018-12-12T07:48:11.427Z,313.13
2018-12-12T07:49:11.406Z,313.39
2018-12-12T07:50:11.400Z,313.07
2018-12-12T07:51:11.411Z,312.76
2018-12-12T07:52:12.299Z,312.65
2018-12-12T07:53:11.369Z,313.14
2018-12-12T07:54:12.174Z,313.07
2018-12-12T07:55:13.202Z,313.66
2018-12-12T07:56:16.225Z,312.74
2018-12-12T07:57:17.176Z,312.66
2018-12-12T07:58:12.718Z,313.17
2018-12-12T07:59:12.681Z,312.98
2018-12-12T08:00:12.171Z,313.24
2018-12-12T08:01:13.197Z,313.37
2018-12-12T08:02:11.289Z,312.70
2018-12-12T08:03:11.257Z,312.52
2018-12-12T08:04:11.238Z,313.20
2018-12-12T08:05:11.269Z,312.30
2018-12-12T08:06:11.241Z,313.35
2018-12-12T08:07:11.216Z,313.08
2018-12-12T08:08:11.215Z,313.10
2018-12-12T08:09:12.180Z,313.19
2018-12-12T08:10:12.697Z,314.27
2018-12-12T08:11:12.175Z,312.95
2018-12-12T08:12:11.245Z,313.02
2018-12-12T08:13:11.149Z,313.42
2018-12-12T08:14:11.138Z,312.94
2018-12-12T08:15:11.186Z,312.85
2018-12-12T08:16:11.173Z,313.14
2018-12-12T08:17:12.759Z,313.29
2018-12-12T08:18:11.122Z,312.25
2018-12-12T08:19:12.703Z,313.64
2018-12-12T08:20:11.119Z,313.13
2018-12-12T08:21:11.071Z,313.53
2018-12-12T08:22:11.674Z,314.15
2018-12-12T08:23:11.719Z,314.07
2018-12-12T08:24:13.690Z,313.02
2018-12-12T08:25:11.017Z,312.76
2018-12-12T08:26:11.209Z,313.04
2018-12-12T08:27:11.724Z,313.47
2018-12-12T08:28:11.021Z,313.23
2018-12-12T08:29:10.968Z,313.44
2018-12-12T08:30:10.962Z,313.55
2018-12-12T08:31:10.977Z,313.23
2018-12-12T08:32:12.174Z,313.40
2018-12-12T08:33:11.938Z,313.47
2018-12-12T08:34:11.674Z,313.45
2018-12-12T08:35:11.680Z,313.48
2018-12-12T08:36:11.697Z,314.35
2018-12-12T08:37:11.700Z,313.90
2018-12-12T08:38:10.883Z,313.72
2018-12-12T08:39:11.678Z,313.10
2018-12-12T08:40:10.903Z,313.46
2018-12-12T08:41:12.193Z,313.73
2018-12-12T08:42:10.884Z,312.90
2018-12-12T08:43:11.690Z,313.62
2018-12-12T08:44:11.682Z,313.17
2018-12-12T08:45:13.714Z,313.66
2018-12-12T08:46:10.787Z,314.10
2018-12-12T08:47:12.255Z,313.35
2018-12-12T08:48:11.789Z,312.84
2018-12-12T08:49:13.755Z,313.73
2018-12-12T08:50:11.698Z,313.97
2018-12-12T08:51:10.741Z,312.97
2018-12-12T08:52:11.669Z,313.54
2018-12-12T08:53:11.658Z,313.77
2018-12-12T08:54:10.722Z,313.31
2018-12-12T08:55:10.728Z,313.38
2018-12-12T08:56:11.689Z,313.54
2018-12-12T08:57:10.711Z,313.83
2018-12-12T08:58:10.690Z,313.50
2018-12-12T08:59:10.682Z,313.62
2018-12-12T09:00:11.170Z,313.60
2018-12-12T09:01:11.216Z,313.93
2018-12-12T09:02:10.681Z,313.93
2018-12-12T09:03:17.378Z,313.80
2018-12-12T09:04:12.195Z,313.83
2018-12-12T09:05:11.193Z,313.03
2018-12-12T09:06:10.592Z,313.50
2018-12-12T09:07:10.605Z,313.92
2018-12-12T09:08:10.579Z,313.52
2018-12-12T09:09:11.203Z,313.34
2018-12-12T09:10:14.211Z,314.05
2018-12-12T09:11:12.254Z,314.61
2018-12-12T09:12:10.599Z,313.11
2018-12-12T09:13:11.172Z,313.09
2018-12-12T09:14:10.544Z,312.64
2018-12-12T09:15:10.524Z,313.48
2018-12-12T09:16:10.509Z,313.67
2018-12-12T09:17:13.211Z,313.27
2018-12-12T09:18:10.477Z,312.96
2018-12-12T09:19:11.332Z,312.91
2018-12-12T09:20:10.448Z,312.35
2018-12-12T09:21:10.409Z,313.16
2018-12-12T09:22:11.400Z,312.39
2018-12-12T09:23:11.186Z,312.52
2018-12-12T09:24:10.397Z,312.90
2018-12-12T09:25:11.208Z,312.24
2018-12-12T09:26:10.414Z,312.55
2018-12-12T09:27:11.185Z,312.86
2018-12-12T09:28:11.193Z,312.36
2018-12-12T09:29:10.336Z,313.30
2018-12-12T09:30:10.375Z,313.21
2018-12-12T09:31:13.194Z,313.19
2018-12-12T09:32:11.128Z,312.82
2018-12-12T09:33:10.292Z,311.94
2018-12-12T09:34:10.320Z,312.28
2018-12-12T09:35:10.312Z,312.41
2018-12-12T09:36:10.682Z,312.54
2018-12-12T09:37:11.195Z,311.99
2018-12-12T09:38:10.318Z,312.37
2018-12-12T09:39:10.253Z,312.87
2018-12-12T09:40:10.209Z,313.10
2018-12-12T09:41:10.199Z,313.06
2018-12-12T09:42:11.173Z,311.99
2018-12-12T09:43:10.184Z,312.25
2018-12-12T09:44:10.161Z,313.53
2018-12-12T09:45:10.138Z,311.98
2018-12-12T09:46:10.145Z,311.98
2018-12-12T09:47:10.138Z,311.28
2018-12-12T09:48:10.667Z,312.86
2018-12-12T09:49:10.103Z,311.76
2018-12-12T09:50:10.097Z,311.44
2018-12-12T09:51:10.083Z,312.29
2018-12-12T09:52:10.071Z,312.82
2018-12-12T09:53:10.066Z,311.95
2018-12-12T09:54:10.718Z,312.32
2018-12-12T09:55:10.025Z,312.42
2018-12-12T09:56:10.942Z,311.46
2018-12-12T09:57:11.233Z,311.90
2018-12-12T09:58:10.009Z,312.73
2018-12-12T09:59:09.990Z,312.28
2018-12-12T10:00:09.984Z,311.85
2018-12-12T10:01:09.975Z,311.92
2018-12-12T10:02:09.995Z,311.90
2018-12-12T10:03:09.964Z,312.30
2018-12-12T10:04:09.956Z,311.97
2018-12-12T10:05:09.946Z,312.02
2018-12-12T10:06:09.907Z,311.03
2018-12-12T10:07:09.913Z,312.12
2018-12-12T10:08:09.893Z,311.41
2018-12-12T10:09:10.700Z,311.52
2018-12-12T10:10:09.886Z,310.78
2018-12-12T10:11:09.864Z,311.07
2018-12-12T10:12:09.843Z,311.21
2018-12-12T10:13:09.835Z,311.66
2018-12-12T10:14:09.825Z,311.98
2018-12-12T10:15:11.712Z,311.66
2018-12-12T10:16:10.664Z,311.27
2018-12-12T10:17:10.658Z,311.43
2018-12-12T10:18:09.779Z,311.16
2018-12-12T10:19:12.708Z,311.57
2018-12-12T10:20:10.758Z,311.40
2018-12-12T10:21:09.778Z,311.80
2018-12-12T10:22:12.742Z,311.91
2018-12-12T10:23:09.746Z,311.63
2018-12-12T10:24:09.715Z,311.69
2018-12-12T10:25:09.709Z,311.72
2018-12-12T10:26:09.731Z,311.78
2018-12-12T10:27:09.696Z,311.36
2018-12-12T10:28:09.683Z,311.75
2018-12-12T10:29:09.666Z,311.89
2018-12-12T10:30:09.657Z,311.94
2018-12-12T10:31:09.640Z,312.10
2018-12-12T10:32:09.630Z,312.58
2018-12-12T10:33:09.624Z,311.88
2018-12-12T10:34:09.607Z,312.60
2018-12-12T10:35:09.594Z,312.49
2018-12-12T10:36:11.210Z,312.20
2018-12-12T10:37:09.580Z,312.47
2018-12-12T10:38:09.571Z,311.89
2018-12-12T10:39:09.574Z,311.68
2018-12-12T10:40:09.539Z,311.83
2018-12-12T10:41:09.531Z,311.39
2018-12-12T10:42:11.226Z,311.24
2018-12-12T10:43:11.222Z,311.52
2018-12-12T10:44:10.221Z,311.18
2018-12-12T10:45:09.493Z,311.44
2018-12-12T10:46:09.473Z,311.17
2018-12-12T10:47:09.485Z,311.45
2018-12-12T10:48:09.462Z,311.15
2018-12-12T10:49:09.444Z,311.29
2018-12-12T10:50:10.180Z,311.50
2018-12-12T10:51:09.418Z,311.07
2018-12-12T10:52:09.425Z,311.26
2018-12-12T10:53:09.717Z,311.25
2018-12-12T10:54:09.403Z,311.11
2018-12-12T10:55:09.380Z,311.46
2018-12-12T10:56:09.377Z,311.39
2018-12-12T10:57:09.354Z,311.30
2018-12-12T10:58:09.351Z,311.31
2018-12-12T10:59:09.335Z,310.94
2018-12-12T11:00:12.721Z,311.24
2018-12-12T11:01:09.311Z,311.54
2018-12-12T11:02:09.309Z,310.91
2018-12-12T11:03:09.291Z,311.28
2018-12-12T11:04:10.173Z,311.16
2018-12-12T11:05:09.267Z,311.20
2018-12-12T11:06:09.281Z,311.04
2018-12-12T11:07:09.244Z,311.14
2018-12-12T11:08:09.243Z,311.28
2018-12-12T11:09:11.204Z,311.46
2018-12-12T11:10:09.217Z,311.64
2018-12-12T11:11:09.219Z,311.10
2018-12-12T11:12:09.197Z,311.09
2018-12-12T11:13:09.181Z,311.24
2018-12-12T11:14:09.175Z,311.60
2018-12-12T11:15:09.163Z,311.42
2018-12-12T11:16:09.151Z,311.25
2018-12-12T11:17:10.138Z,311.24
2018-12-12T11:18:10.131Z,311.35
2018-12-12T11:19:09.125Z,311.05
2018-12-12T11:20:09.112Z,311.05
2018-12-12T11:21:09.089Z,311.18
2018-12-12T11:22:09.095Z,310.98
2018-12-12T11:23:09.077Z,310.57
2018-12-12T11:24:09.082Z,311.12
2018-12-12T11:25:09.060Z,310.67
2018-12-12T11:26:09.061Z,311.17
2018-12-12T11:27:09.032Z,311.10
2018-12-12T11:28:09.020Z,311.13
2018-12-12T11:29:09.011Z,310.93
2018-12-12T11:30:09.011Z,311.05
2018-12-12T11:31:08.986Z,310.99
2018-12-12T11:32:08.970Z,311.23
2018-12-12T11:33:08.974Z,311.16
2018-12-12T11:34:08.959Z,310.92
2018-12-12T11:35:08.949Z,310.67
2018-12-12T11:36:08.923Z,310.99
2018-12-12T11:37:08.934Z,310.84
2018-12-12T11:38:08.920Z,310.79
2018-12-12T11:39:08.910Z,310.65
2018-12-12T11:40:08.894Z,310.85
2018-12-12T11:41:08.878Z,311.34
2018-12-12T11:42:08.891Z,310.95
2018-12-12T11:43:08.882Z,311.01
2018-12-12T11:44:08.841Z,311.00
2018-12-12T11:45:08.830Z,311.07
2018-12-12T11:46:08.828Z,311.19
2018-12-12T11:47:08.811Z,310.45
2018-12-12T11:48:08.854Z,310.95
2018-12-12T11:49:09.747Z,310.83
2018-12-12T11:50:09.676Z,310.91
2018-12-12T11:51:09.680Z,311.36
2018-12-12T11:52:08.777Z,310.93
2018-12-12T11:53:09.683Z,311.09
2018-12-12T11:54:09.683Z,311.20
2018-12-12T11:55:08.735Z,310.84
2018-12-12T11:56:10.205Z,310.97
2018-12-12T11:57:14.181Z,310.95
2018-12-12T11:58:11.261Z,311.40
2018-12-12T11:59:08.689Z,311.25
2018-12-12T12:00:08.675Z,311.51
2018-12-12T12:01:08.652Z,311.74
2018-12-12T12:02:08.659Z,311.68
2018-12-12T12:03:09.632Z,312.42
2018-12-12T12:04:09.184Z,311.43
2018-12-12T12:05:08.622Z,311.61
2018-12-12T12:06:08.719Z,311.81
2018-12-12T12:07:08.623Z,312.00
2018-12-12T12:08:10.187Z,311.40
2018-12-12T12:09:09.723Z,312.40
2018-12-12T12:10:08.568Z,311.32
2018-12-12T12:11:08.556Z,310.92
2018-12-12T12:12:08.552Z,311.92
2018-12-12T12:13:08.531Z,311.57
2018-12-12T12:14:09.178Z,311.72
2018-12-12T12:15:08.541Z,311.40
2018-12-12T12:16:09.272Z,311.28
2018-12-12T12:17:08.498Z,310.96
2018-12-12T12:18:08.474Z,312.11
2018-12-12T12:19:09.183Z,311.13
2018-12-12T12:20:09.200Z,311.15
2018-12-12T12:21:08.882Z,311.69
2018-12-12T12:22:09.296Z,310.88
2018-12-12T12:23:08.474Z,310.53
2018-12-12T12:24:08.529Z,312.35
2018-12-12T12:25:08.611Z,311.36
2018-12-12T12:26:08.476Z,310.22
2018-12-12T12:27:08.491Z,311.20
2018-12-12T12:28:09.215Z,311.47
2018-12-12T12:29:08.415Z,310.64
2018-12-12T12:30:08.480Z,310.38
2018-12-12T12:31:08.449Z,311.67
2018-12-12T12:32:08.362Z,310.92
2018-12-12T12:33:08.462Z,310.36
2018-12-12T12:34:09.330Z,311.21
2018-12-12T12:35:09.354Z,310.07
2018-12-12T12:36:08.376Z,310.79
2018-12-12T12:37:08.428Z,310.30
2018-12-12T12:38:08.354Z,310.41
2018-12-12T12:39:08.369Z,310.45
2018-12-12T12:40:09.293Z,311.09
2018-12-12T12:41:08.323Z,310.64
2018-12-12T12:42:08.304Z,309.93
2018-12-12T12:43:09.417Z,310.33
2018-12-12T12:44:08.396Z,311.61
2018-12-12T12:45:08.305Z,310.53
2018-12-12T12:46:08.302Z,310.15
2018-12-12T12:47:08.263Z,310.93
2018-12-12T12:48:08.242Z,309.97
2018-12-12T12:49:08.340Z,310.50
2018-12-12T12:50:08.228Z,309.85
2018-12-12T12:51:08.183Z,310.60
2018-12-12T12:52:08.273Z,310.07
2018-12-12T12:53:08.180Z,310.86